Time,TemperatureF,DewpointF,PressureIn,WindDirection,WindDirectionDegrees,WindSpeedMPH,WindSpeedGustMPH,Humidity,HourlyPrecipIn,Conditions,Clouds,dailyrainin,SoftwareType,DateUTC
2013-08-23 00:00:00,67.1,65.0,29.95,North,-999,0.0,0.0,93,0.00,,,-99.99,WeatherLink 5.7,2013-08-23 04:00:00,
2013-08-23 00:10:00,67.1,65.0,29.95,North,-999,0.0,0.0,93,0.00,,,-99.99,WeatherLink 5.7,2013-08-23 04:10:00,
2013-08-23 00:20:00,67.0,64.9,29.95,North,-999,0.0,0.0,93,0.00,,,-99.99,WeatherLink 5.7,2013-08-23 04:20:00,
2013-08-23 00:30:00,67.2,65.1,29.95,North,-999,0.0,0.0,93,0.00,,,-99.99,WeatherLink 5.7,2013-08-23 04:30:00,
2013-08-23 00:40:00,67.5,65.7,29.94,North,-999,0.0,0.0,94,0.00,,,-99.99,WeatherLink 5.7,2013-08-23 04:40:00,
2013-08-23 00:50:00,67.6,65.5,29.95,North,-999,0.0,0.0,93,0.00,,,-99.99,WeatherLink 5.7,2013-08-23 04:50:00,
2013-08-23 01:00:00,67.7,65.6,29.94,North,-999,0.0,1.0,93,0.00,,,-99.99,WeatherLink 5.7,2013-08-23 05:00:00,
2013-08-23 01:10:00,67.7,65.6,29.96,ENE,67,0.0,2.0,93,0.00,,,-99.99,WeatherLink 5.7,2013-08-23 05:10:00,
2013-08-23 01:20:00,67.8,65.4,29.96,ENE,67,0.0,2.0,92,0.00,,,-99.99,WeatherLink 5.7,2013-08-23 05:20:00,
2013-08-23 01:30:00,68.0,65.3,29.95,ENE,67,0.0,1.0,91,0.00,,,-99.99,WeatherLink 5.7,2013-08-23 05:30:00,
2013-08-23 01:40:00,68.1,65.4,29.95,ENE,67,0.0,2.0,91,0.00,,,-99.99,WeatherLink 5.7,2013-08-23 05:40:00,
2013-08-23 01:50:00,68.2,65.2,29.95,ENE,67,0.0,1.0,90,0.00,,,-99.99,WeatherLink 5.7,2013-08-23 05:50:00,
2013-08-23 02:00:00,68.3,65.3,29.95,ENE,67,0.0,1.0,90,0.00,,,-99.99,WeatherLink 5.7,2013-08-23 06:00:00,
2013-08-23 02:10:00,68.3,65.3,29.96,ENE,67,1.0,2.0,90,0.00,,,-99.99,WeatherLink 5.7,2013-08-23 06:10:00,
2013-08-23 02:20:00,68.3,64.9,29.95,WNW,292,1.0,2.0,89,0.00,,,-99.99,WeatherLink 5.7,2013-08-23 06:20:00,
2013-08-23 02:30:00,68.3,65.3,29.96,WNW,292,1.0,3.0,90,0.00,,,-99.99,WeatherLink 5.7,2013-08-23 06:30:00,
2013-08-23 02:40:00,68.3,64.9,29.96,WNW,292,0.0,2.0,89,0.00,,,-99.99,WeatherLink 5.7,2013-08-23 06:40:00,
2013-08-23 02:50:00,68.3,64.9,29.95,WNW,292,0.0,2.0,89,0.00,,,-99.99,WeatherLink 5.7,2013-08-23 06:50:00,
2013-08-23 03:01:00,68.2,64.8,29.95,WNW,292,0.0,1.0,89,0.00,,,-99.99,WeatherLink 5.7,2013-08-23 07:01:00,
2013-08-23 03:11:00,68.1,65.1,29.95,WNW,292,0.0,1.0,90,0.00,,,-99.99,WeatherLink 5.7,2013-08-23 07:11:00,
2013-08-23 03:21:00,68.0,65.0,29.95,WNW,292,0.0,1.0,90,0.00,,,-99.99,WeatherLink 5.7,2013-08-23 07:21:00,
2013-08-23 03:31:00,67.8,64.8,29.95,WNW,292,0.0,1.0,90,0.00,,,-99.99,WeatherLink 5.7,2013-08-23 07:31:00,
2013-08-23 03:41:00,67.7,64.7,29.95,North,-999,0.0,1.0,90,0.00,,,-99.99,WeatherLink 5.7,2013-08-23 07:41:00,
2013-08-23 03:51:00,67.6,64.6,29.95,North,-999,0.0,0.0,90,0.00,,,-99.99,WeatherLink 5.7,2013-08-23 07:51:00,
2013-08-23 04:01:00,67.3,64.3,29.95,WNW,292,0.0,1.0,90,0.00,,,-99.99,WeatherLink 5.7,2013-08-23 08:01:00,
2013-08-23 04:11:00,66.9,63.9,29.95,WNW,292,0.0,1.0,90,0.00,,,-99.99,WeatherLink 5.7,2013-08-23 08:11:00,
2013-08-23 04:21:00,66.9,64.2,29.95,WNW,292,0.0,1.0,91,0.00,,,-99.99,WeatherLink 5.7,2013-08-23 08:21:00,
2013-08-23 04:31:00,66.8,63.8,29.94,WNW,292,0.0,1.0,90,0.00,,,-99.99,WeatherLink 5.7,2013-08-23 08:31:00,
2013-08-23 04:41:00,66.6,63.9,29.95,WNW,292,0.0,1.0,91,0.00,,,-99.99,WeatherLink 5.7,2013-08-23 08:41:00,
2013-08-23 04:51:00,66.6,63.9,29.95,WNW,292,0.0,1.0,91,0.00,,,-99.99,WeatherLink 5.7,2013-08-23 08:51:00,
2013-08-23 05:01:00,66.6,63.6,29.96,WNW,292,0.0,2.0,90,0.00,,,-99.99,WeatherLink 5.7,2013-08-23 09:01:00,
2013-08-23 05:11:00,66.7,63.7,29.97,WNW,292,0.0,2.0,90,0.00,,,-99.99,WeatherLink 5.7,2013-08-23 09:11:00,
2013-08-23 05:21:00,66.7,63.4,29.97,WNW,292,1.0,2.0,89,0.00,,,-99.99,WeatherLink 5.7,2013-08-23 09:21:00,
2013-08-23 05:31:00,66.8,63.5,29.97,WNW,292,1.0,2.0,89,0.00,,,-99.99,WeatherLink 5.7,2013-08-23 09:31:00,
2013-08-23 05:41:00,66.7,63.4,29.97,WNW,292,0.0,1.0,89,0.00,,,-99.99,WeatherLink 5.7,2013-08-23 09:41:00,
2013-08-23 05:51:00,66.5,63.2,29.97,North,-999,0.0,0.0,89,0.00,,,-99.99,WeatherLink 5.7,2013-08-23 09:51:00,
2013-08-23 06:01:00,66.2,63.2,29.97,North,-999,0.0,0.0,90,0.00,,,-99.99,WeatherLink 5.7,2013-08-23 10:01:00,
2013-08-23 06:11:00,65.8,62.8,29.98,North,-999,0.0,0.0,90,0.00,,,-99.99,WeatherLink 5.7,2013-08-23 10:11:00,
2013-08-23 06:21:00,65.6,62.6,29.99,North,-999,0.0,0.0,90,0.00,,,-99.99,WeatherLink 5.7,2013-08-23 10:21:00,
2013-08-23 06:31:00,65.4,62.7,29.99,North,-999,0.0,0.0,91,0.00,,,-99.99,WeatherLink 5.7,2013-08-23 10:31:00,
2013-08-23 06:41:00,65.3,62.6,29.99,North,-999,0.0,0.0,91,0.00,,,-99.99,WeatherLink 5.7,2013-08-23 10:41:00,
2013-08-23 06:51:00,65.1,62.4,30.00,North,-999,0.0,0.0,91,0.00,,,-99.99,WeatherLink 5.7,2013-08-23 10:51:00,
2013-08-23 07:01:00,65.0,62.3,30.00,North,-999,0.0,0.0,91,0.00,,,-99.99,WeatherLink 5.7,2013-08-23 11:01:00,
2013-08-23 07:11:00,64.9,62.2,30.00,North,-999,0.0,0.0,91,0.00,,,-99.99,WeatherLink 5.7,2013-08-23 11:11:00,
2013-08-23 07:21:00,65.0,62.6,30.00,North,-999,0.0,0.0,92,0.00,,,-99.99,WeatherLink 5.7,2013-08-23 11:21:00,
2013-08-23 07:31:00,65.0,62.6,30.01,North,-999,0.0,1.0,92,0.00,,,-99.99,WeatherLink 5.7,2013-08-23 11:31:00,
2013-08-23 07:41:00,65.1,62.7,30.02,North,-999,0.0,0.0,92,0.00,,,-99.99,WeatherLink 5.7,2013-08-23 11:41:00,
2013-08-23 07:51:00,65.2,62.8,30.02,North,-999,0.0,0.0,92,0.00,,,-99.99,WeatherLink 5.7,2013-08-23 11:51:00,
2013-08-23 08:01:00,65.4,63.0,30.02,North,-999,0.0,0.0,92,0.00,,,-99.99,WeatherLink 5.7,2013-08-23 12:01:00,
2013-08-23 08:11:00,65.6,63.2,30.02,North,-999,0.0,0.0,92,0.00,,,-99.99,WeatherLink 5.7,2013-08-23 12:11:00,
2013-08-23 08:21:00,65.7,63.0,30.03,North,-999,0.0,0.0,91,0.00,,,-99.99,WeatherLink 5.7,2013-08-23 12:21:00,
2013-08-23 08:31:00,65.8,63.1,30.03,North,-999,0.0,0.0,91,0.00,,,-99.99,WeatherLink 5.7,2013-08-23 12:31:00,
2013-08-23 08:41:00,66.0,63.0,30.03,North,-999,0.0,0.0,90,0.00,,,-99.99,WeatherLink 5.7,2013-08-23 12:41:00,
2013-08-23 08:51:00,66.0,63.0,30.03,North,-999,0.0,0.0,90,0.00,,,-99.99,WeatherLink 5.7,2013-08-23 12:51:00,
2013-08-23 09:01:00,66.1,62.8,30.02,North,-999,0.0,0.0,89,0.00,,,-99.99,WeatherLink 5.7,2013-08-23 13:01:00,
2013-08-23 09:11:00,66.2,62.9,30.04,North,-999,0.0,0.0,89,0.00,,,-99.99,WeatherLink 5.7,2013-08-23 13:11:00,
2013-08-23 09:21:00,66.2,62.9,30.03,North,-999,0.0,0.0,89,0.00,,,-99.99,WeatherLink 5.7,2013-08-23 13:21:00,
2013-08-23 09:31:00,66.2,62.9,30.03,North,-999,0.0,0.0,89,0.00,,,-99.99,WeatherLink 5.7,2013-08-23 13:31:00,
2013-08-23 09:41:00,66.2,62.5,30.04,WNW,292,0.0,1.0,88,0.00,,,-99.99,WeatherLink 5.7,2013-08-23 13:41:00,
2013-08-23 09:51:00,66.2,62.5,30.04,North,-999,0.0,0.0,88,0.00,,,-99.99,WeatherLink 5.7,2013-08-23 13:51:00,
2013-08-23 10:01:00,66.5,62.8,30.05,North,-999,0.0,0.0,88,0.00,,,-99.99,WeatherLink 5.7,2013-08-23 14:01:00,
2013-08-23 10:11:00,66.7,62.7,30.04,North,-999,0.0,0.0,87,0.00,,,-99.99,WeatherLink 5.7,2013-08-23 14:11:00,
2013-08-23 10:21:00,67.0,62.3,30.04,North,-999,0.0,0.0,85,0.00,,,-99.99,WeatherLink 5.7,2013-08-23 14:21:00,
2013-08-23 10:31:00,67.3,62.0,30.04,North,-999,0.0,0.0,83,0.00,,,-99.99,WeatherLink 5.7,2013-08-23 14:31:00,
2013-08-23 10:41:00,67.9,61.5,30.05,North,-999,0.0,0.0,80,0.00,,,-99.99,WeatherLink 5.7,2013-08-23 14:41:00,
2013-08-23 10:51:00,68.6,61.1,30.05,East,90,0.0,2.0,77,0.00,,,-99.99,WeatherLink 5.7,2013-08-23 14:51:00,
2013-08-23 11:01:00,69.2,59.4,30.04,South,180,0.0,3.0,71,0.00,,,-99.99,WeatherLink 5.7,2013-08-23 15:01:00,
2013-08-23 11:11:00,69.7,59.1,30.04,SSW,202,1.0,3.0,69,0.00,,,-99.99,WeatherLink 5.7,2013-08-23 15:11:00,
2013-08-23 11:21:00,69.8,59.2,30.04,SW,225,0.0,3.0,69,0.00,,,-99.99,WeatherLink 5.7,2013-08-23 15:21:00,
2013-08-23 11:31:00,69.6,59.4,30.04,West,270,0.0,2.0,70,0.00,,,-99.99,WeatherLink 5.7,2013-08-23 15:31:00,
2013-08-23 11:41:00,69.8,58.3,30.04,West,270,0.0,2.0,67,0.00,,,-99.99,WeatherLink 5.7,2013-08-23 15:41:00,
2013-08-23 11:51:00,70.1,59.5,30.03,East,90,0.0,2.0,69,0.00,,,-99.99,WeatherLink 5.7,2013-08-23 15:51:00,
2013-08-23 12:01:00,70.4,59.3,30.04,SSW,202,0.0,3.0,68,0.00,,,-99.99,WeatherLink 5.7,2013-08-23 16:01:00,
2013-08-23 12:11:00,70.7,60.4,30.04,SSW,202,0.0,2.0,70,0.00,,,-99.99,WeatherLink 5.7,2013-08-23 16:11:00,
2013-08-23 12:21:00,70.9,59.8,30.04,SSW,202,0.0,2.0,68,0.00,,,-99.99,WeatherLink 5.7,2013-08-23 16:21:00,
2013-08-23 12:31:00,71.0,60.3,30.04,WNW,292,0.0,3.0,69,0.00,,,-99.99,WeatherLink 5.7,2013-08-23 16:31:00,
2013-08-23 12:41:00,71.0,59.1,30.04,WNW,292,1.0,3.0,66,0.00,,,-99.99,WeatherLink 5.7,2013-08-23 16:41:00,
2013-08-23 12:51:00,70.9,59.0,30.04,West,270,1.0,4.0,66,0.00,,,-99.99,WeatherLink 5.7,2013-08-23 16:51:00,
2013-08-23 13:01:00,70.9,58.1,30.04,West,270,0.0,2.0,64,0.00,,,-99.99,WeatherLink 5.7,2013-08-23 17:01:00,
2013-08-23 13:11:00,70.9,58.1,30.05,WNW,292,0.0,2.0,64,0.00,,,-99.99,WeatherLink 5.7,2013-08-23 17:11:00,
2013-08-23 13:21:00,70.8,58.9,30.05,WNW,292,0.0,2.0,66,0.00,,,-99.99,WeatherLink 5.7,2013-08-23 17:21:00,
2013-08-23 13:31:00,71.1,59.2,30.05,SW,225,1.0,3.0,66,0.00,,,-99.99,WeatherLink 5.7,2013-08-23 17:31:00,
2013-08-23 13:41:00,71.5,58.2,30.04,WNW,292,1.0,3.0,63,0.00,,,-99.99,WeatherLink 5.7,2013-08-23 17:41:00,
2013-08-23 13:51:00,71.8,58.5,30.05,WNW,292,1.0,4.0,63,0.00,,,-99.99,WeatherLink 5.7,2013-08-23 17:51:00,
2013-08-23 14:01:00,71.9,59.5,30.04,WNW,292,1.0,3.0,65,0.00,,,-99.99,WeatherLink 5.7,2013-08-23 18:01:00,
2013-08-23 14:11:00,71.7,58.4,30.05,WNW,292,1.0,3.0,63,0.00,,,-99.99,WeatherLink 5.7,2013-08-23 18:11:00,
2013-08-23 14:21:00,71.8,59.4,30.04,WNW,292,0.0,3.0,65,0.00,,,-99.99,WeatherLink 5.7,2013-08-23 18:21:00,
2013-08-23 14:31:00,71.8,60.2,30.05,WSW,247,0.0,2.0,67,0.00,,,-99.99,WeatherLink 5.7,2013-08-23 18:31:00,
2013-08-23 14:41:00,71.5,59.5,30.04,NW,315,0.0,2.0,66,0.00,,,-99.99,WeatherLink 5.7,2013-08-23 18:41:00,
2013-08-23 14:51:00,71.2,59.7,30.04,ENE,67,0.0,2.0,67,0.00,,,-99.99,WeatherLink 5.7,2013-08-23 18:51:00,
2013-08-23 15:01:00,71.1,60.4,30.04,SE,135,0.0,2.0,69,0.00,,,-99.99,WeatherLink 5.7,2013-08-23 19:01:00,
2013-08-23 15:11:00,70.9,60.6,30.03,North,-999,0.0,0.0,70,0.00,,,-99.99,WeatherLink 5.7,2013-08-23 19:11:00,
2013-08-23 15:21:00,70.9,61.0,30.03,North,-999,0.0,0.0,71,0.00,,,-99.99,WeatherLink 5.7,2013-08-23 19:21:00,
2013-08-23 15:31:00,70.9,60.6,30.04,SE,135,0.0,1.0,70,0.00,,,-99.99,WeatherLink 5.7,2013-08-23 19:31:00,
2013-08-23 15:41:00,71.0,61.1,30.04,SE,135,0.0,1.0,71,0.00,,,-99.99,WeatherLink 5.7,2013-08-23 19:41:00,
2013-08-23 15:51:00,71.4,62.3,30.03,North,-999,0.0,0.0,73,0.00,,,-99.99,WeatherLink 5.7,2013-08-23 19:51:00,
2013-08-23 16:01:00,71.6,60.9,30.04,SE,135,0.0,2.0,69,0.00,,,-99.99,WeatherLink 5.7,2013-08-23 20:01:00,
2013-08-23 16:11:00,71.7,61.0,30.04,SE,135,0.0,1.0,69,0.00,,,-99.99,WeatherLink 5.7,2013-08-23 20:11:00,
2013-08-23 16:21:00,71.6,61.3,30.04,SE,135,0.0,1.0,70,0.00,,,-99.99,WeatherLink 5.7,2013-08-23 20:21:00,
2013-08-23 16:31:00,71.7,61.8,30.04,SSE,157,0.0,2.0,71,0.00,,,-99.99,WeatherLink 5.7,2013-08-23 20:31:00,
2013-08-23 16:41:00,71.7,61.8,30.04,North,-999,0.0,0.0,71,0.00,,,-99.99,WeatherLink 5.7,2013-08-23 20:41:00,
2013-08-23 16:51:00,71.5,62.0,30.03,North,-999,0.0,0.0,72,0.00,,,-99.99,WeatherLink 5.7,2013-08-23 20:51:00,
2013-08-23 17:01:00,71.2,62.1,30.03,North,-999,0.0,0.0,73,0.00,,,-99.99,WeatherLink 5.7,2013-08-23 21:01:00,
2013-08-23 17:11:00,71.0,61.5,30.03,SSE,157,0.0,1.0,72,0.00,,,-99.99,WeatherLink 5.7,2013-08-23 21:11:00,
2013-08-23 17:21:00,70.9,61.0,30.03,SSE,157,0.0,1.0,71,0.00,,,-99.99,WeatherLink 5.7,2013-08-23 21:21:00,
2013-08-23 17:31:00,71.0,61.1,30.03,SSE,157,0.0,2.0,71,0.00,,,-99.99,WeatherLink 5.7,2013-08-23 21:31:00,
2013-08-23 17:41:00,71.0,61.1,30.04,SSE,157,0.0,3.0,71,0.00,,,-99.99,WeatherLink 5.7,2013-08-23 21:41:00,
2013-08-23 17:51:00,70.7,60.0,30.04,South,180,0.0,1.0,69,0.00,,,-99.99,WeatherLink 5.7,2013-08-23 21:51:00,
2013-08-23 18:01:00,70.5,59.8,30.05,South,180,0.0,1.0,69,0.00,,,-99.99,WeatherLink 5.7,2013-08-23 22:01:00,
2013-08-23 18:11:00,70.3,59.6,30.04,North,-999,0.0,0.0,69,0.00,,,-99.99,WeatherLink 5.7,2013-08-23 22:11:00,
2013-08-23 18:21:00,70.1,59.5,30.05,North,-999,0.0,0.0,69,0.00,,,-99.99,WeatherLink 5.7,2013-08-23 22:21:00,
2013-08-23 18:31:00,69.9,58.4,30.05,North,-999,0.0,0.0,67,0.00,,,-99.99,WeatherLink 5.7,2013-08-23 22:31:00,
2013-08-23 18:41:00,69.8,58.3,30.05,North,-999,0.0,0.0,67,0.00,,,-99.99,WeatherLink 5.7,2013-08-23 22:41:00,
2013-08-23 18:51:00,69.7,58.3,30.05,North,-999,0.0,0.0,67,0.00,,,-99.99,WeatherLink 5.7,2013-08-23 22:51:00,
2013-08-23 19:01:00,69.6,58.6,30.05,North,-999,0.0,0.0,68,0.00,,,-99.99,WeatherLink 5.7,2013-08-23 23:01:00,
2013-08-23 19:11:00,69.4,58.8,30.06,North,-999,0.0,0.0,69,0.00,,,-99.99,WeatherLink 5.7,2013-08-23 23:11:00,
2013-08-23 19:21:00,69.3,60.3,30.06,North,-999,0.0,0.0,73,0.00,,,-99.99,WeatherLink 5.7,2013-08-23 23:21:00,
2013-08-23 19:31:00,69.0,60.7,30.06,North,-999,0.0,0.0,75,0.00,,,-99.99,WeatherLink 5.7,2013-08-23 23:31:00,
2013-08-23 19:41:00,68.7,60.1,30.06,North,-999,0.0,0.0,74,0.00,,,-99.99,WeatherLink 5.7,2013-08-23 23:41:00,
2013-08-23 19:51:00,68.5,60.6,30.06,North,-999,0.0,0.0,76,0.00,,,-99.99,WeatherLink 5.7,2013-08-23 23:51:00,
2013-08-23 20:01:00,68.3,61.5,30.07,North,-999,0.0,0.0,79,0.00,,,-99.99,WeatherLink 5.7,2013-08-24 00:01:00,
2013-08-23 20:11:00,67.3,60.9,30.08,East,90,0.0,3.0,80,0.00,,,-99.99,WeatherLink 5.7,2013-08-24 00:11:00,
2013-08-23 20:21:00,66.6,60.2,30.08,North,-999,0.0,0.0,80,0.00,,,-99.99,WeatherLink 5.7,2013-08-24 00:21:00,
2013-08-23 20:31:00,66.4,60.7,30.09,North,-999,0.0,0.0,82,0.00,,,-99.99,WeatherLink 5.7,2013-08-24 00:31:00,
2013-08-23 20:41:00,66.0,60.7,30.09,North,-999,0.0,0.0,83,0.00,,,-99.99,WeatherLink 5.7,2013-08-24 00:41:00,
2013-08-23 20:51:00,65.8,60.5,30.10,North,-999,0.0,0.0,83,0.00,,,-99.99,WeatherLink 5.7,2013-08-24 00:51:00,
2013-08-23 21:01:00,65.9,60.9,30.10,North,-999,0.0,0.0,84,0.00,,,-99.99,WeatherLink 5.7,2013-08-24 01:01:00,
2013-08-23 21:11:00,65.9,60.9,30.11,North,-999,0.0,0.0,84,0.00,,,-99.99,WeatherLink 5.7,2013-08-24 01:11:00,
2013-08-23 21:21:00,65.5,60.5,30.11,North,-999,0.0,0.0,84,0.00,,,-99.99,WeatherLink 5.7,2013-08-24 01:21:00,
2013-08-23 21:31:00,65.4,60.1,30.12,East,90,0.0,1.0,83,0.00,,,-99.99,WeatherLink 5.7,2013-08-24 01:31:00,
2013-08-23 21:41:00,65.7,59.7,30.12,North,-999,0.0,0.0,81,0.00,,,-99.99,WeatherLink 5.7,2013-08-24 01:41:00,
2013-08-23 21:51:00,66.0,60.0,30.13,North,-999,0.0,0.0,81,0.00,,,-99.99,WeatherLink 5.7,2013-08-24 01:51:00,
2013-08-23 22:01:00,66.2,59.8,30.13,North,-999,0.0,1.0,80,0.00,,,-99.99,WeatherLink 5.7,2013-08-24 02:01:00,
2013-08-23 22:11:00,66.2,59.5,30.12,North,-999,0.0,0.0,79,0.00,,,-99.99,WeatherLink 5.7,2013-08-24 02:11:00,
2013-08-23 22:21:00,66.0,60.7,30.12,North,-999,0.0,0.0,83,0.00,,,-99.99,WeatherLink 5.7,2013-08-24 02:21:00,
2013-08-23 22:31:00,65.0,60.0,30.13,North,-999,0.0,0.0,84,0.00,,,-99.99,WeatherLink 5.7,2013-08-24 02:31:00,
2013-08-23 22:41:00,64.6,60.0,30.13,North,-999,0.0,0.0,85,0.00,,,-99.99,WeatherLink 5.7,2013-08-24 02:41:00,
2013-08-23 22:51:00,64.7,60.1,30.13,North,-999,0.0,0.0,85,0.00,,,-99.99,WeatherLink 5.7,2013-08-24 02:51:00,
2013-08-23 23:01:00,64.7,59.4,30.14,North,-999,0.0,0.0,83,0.00,,,-99.99,WeatherLink 5.7,2013-08-24 03:01:00,
2013-08-23 23:11:00,64.6,59.7,30.14,East,90,0.0,1.0,84,0.00,,,-99.99,WeatherLink 5.7,2013-08-24 03:11:00,
2013-08-23 23:21:00,64.3,59.0,30.14,North,-999,0.0,0.0,83,0.00,,,-99.99,WeatherLink 5.7,2013-08-24 03:21:00,
2013-08-23 23:31:00,64.2,57.2,30.14,East,90,0.0,1.0,78,0.00,,,-99.99,WeatherLink 5.7,2013-08-24 03:31:00,
2013-08-23 23:41:00,64.5,55.3,30.14,SE,135,0.0,2.0,72,0.00,,,-99.99,WeatherLink 5.7,2013-08-24 03:41:00,
2013-08-23 23:51:00,64.9,56.4,30.15,SE,135,0.0,2.0,74,0.00,,,-99.99,WeatherLink 5.7,2013-08-24 03:51:00,